createdAt,value
2018-04-17T00:00:06.621Z,81.90
2018-04-17T00:02:34.131Z,81.80
2018-04-17T00:05:01.642Z,81.80
2018-04-17T00:07:29.168Z,81.50
2018-04-17T00:09:57.446Z,81.00
2018-04-17T00:12:25.133Z,81.00
2018-04-17T00:14:52.642Z,81.90
2018-04-17T00:17:20.172Z,80.70
2018-04-17T00:19:47.686Z,80.60
2018-04-17T00:22:15.198Z,79.80
2018-04-17T00:24:42.706Z,79.80
2018-04-17T00:27:10.991Z,80.30
2018-04-17T00:29:39.269Z,79.70
2018-04-17T00:32:07.549Z,79.50
2018-04-17T00:34:35.821Z,79.60
2018-04-17T00:37:04.105Z,79.30
2018-04-17T00:39:32.394Z,78.80
2018-04-17T00:41:59.904Z,78.80
2018-04-17T00:44:27.402Z,78.70
2018-04-17T00:46:55.692Z,78.30
2018-04-17T00:49:23.201Z,78.10
2018-04-17T00:51:50.702Z,78.00
2018-04-17T00:54:18.206Z,78.00
2018-04-17T00:56:45.751Z,77.80
2018-04-17T00:59:13.225Z,77.80
2018-04-17T01:01:40.754Z,77.80
2018-04-17T01:04:08.254Z,78.10
2018-04-17T01:06:35.780Z,78.30
2018-04-17T01:09:03.297Z,78.30
2018-04-17T01:11:31.578Z,79.10
2018-04-17T01:13:59.849Z,79.10
2018-04-17T01:16:28.129Z,79.60
2018-04-17T01:18:56.394Z,80.10
2018-04-17T01:21:24.669Z,80.80
2018-04-17T01:23:52.942Z,81.50
2018-04-17T01:26:20.474Z,81.40
2018-04-17T01:28:47.983Z,81.70
2018-04-17T01:31:15.489Z,82.10
2018-04-17T01:33:42.989Z,82.20
2018-04-17T01:36:11.275Z,82.80
2018-04-17T01:38:39.556Z,83.00
2018-04-17T01:41:07.070Z,82.90
2018-04-17T01:43:34.606Z,83.00
2018-04-17T01:46:02.137Z,83.80
2018-04-17T01:48:29.685Z,83.80
2018-04-17T01:50:57.954Z,83.80
2018-04-17T01:53:26.222Z,83.60
2018-04-17T01:55:54.506Z,84.90
2018-04-17T01:58:22.779Z,84.40
2018-04-17T02:00:51.069Z,84.40
2018-04-17T02:03:19.350Z,84.70
2018-04-17T02:05:47.622Z,84.60
2018-04-17T02:08:15.911Z,84.70
2018-04-17T02:10:43.429Z,84.60
2018-04-17T02:13:10.930Z,84.50
2018-04-17T02:15:38.451Z,84.00
2018-04-17T02:18:05.969Z,83.10
2018-04-17T02:20:33.480Z,83.10
2018-04-17T02:23:01.755Z,83.30
2018-04-17T02:25:30.026Z,82.80
2018-04-17T02:27:57.554Z,82.70
2018-04-17T02:30:25.070Z,81.90
2018-04-17T02:32:52.599Z,81.00
2018-04-17T02:35:20.210Z,80.90
2018-04-17T02:37:47.729Z,80.90
2018-04-17T02:40:15.998Z,80.20
2018-04-17T02:42:43.582Z,80.20
2018-04-17T02:45:11.852Z,79.60
2018-04-17T02:47:40.141Z,79.80
2018-04-17T02:50:07.650Z,79.80
2018-04-17T02:52:35.167Z,80.30
2018-04-17T02:55:02.670Z,81.10
2018-04-17T02:57:30.174Z,81.60
2018-04-17T02:59:57.681Z,81.70
2018-04-17T03:02:25.190Z,81.50
2018-04-17T03:04:52.707Z,81.70
2018-04-17T03:07:20.222Z,82.30
2018-04-17T03:09:47.734Z,82.80
2018-04-17T03:12:15.244Z,82.90
2018-04-17T03:14:42.757Z,83.10
2018-04-17T03:17:11.039Z,83.60
2018-04-17T03:19:39.310Z,83.30
2018-04-17T03:22:06.834Z,83.20
2018-04-17T03:24:34.333Z,83.20
2018-04-17T03:27:02.606Z,83.10
2018-04-17T03:29:30.129Z,83.10
2018-04-17T03:31:57.637Z,83.20
2018-04-17T03:34:25.927Z,82.90
2018-04-17T03:36:53.441Z,82.90
2018-04-17T03:39:20.959Z,82.90
2018-04-17T03:41:48.479Z,83.20
2018-04-17T03:44:16.749Z,83.90
2018-04-17T03:46:45.018Z,83.80
2018-04-17T03:49:13.315Z,84.50
2018-04-17T03:51:41.579Z,84.10
2018-04-17T03:54:09.866Z,84.20
2018-04-17T03:56:38.134Z,84.30
2018-04-17T03:59:06.402Z,84.50
2018-04-17T04:01:33.902Z,84.40
2018-04-17T04:04:01.421Z,84.70
2018-04-17T04:06:29.713Z,85.80
2018-04-17T04:08:57.989Z,85.40
2018-04-17T04:11:26.270Z,85.60
2018-04-17T04:13:54.549Z,85.90
2018-04-17T04:16:49.477Z,85.80
2018-04-17T04:19:28.943Z,85.80
2018-04-17T04:22:20.369Z,85.80
2018-04-17T04:24:59.945Z,86.00
2018-04-17T04:27:28.258Z,86.10
2018-04-17T04:29:55.761Z,86.10
2018-04-17T04:32:24.777Z,86.40
2018-04-17T04:34:52.351Z,86.30
2018-04-17T04:37:20.598Z,87.00
2018-04-17T04:39:49.138Z,87.60
2018-04-17T04:42:16.643Z,87.50
2018-04-17T04:44:44.918Z,87.20
2018-04-17T04:47:13.194Z,86.70
2018-04-17T04:49:41.482Z,87.00
2018-04-17T04:52:09.801Z,87.00
2018-04-17T04:54:38.031Z,87.10
2018-04-17T04:57:06.297Z,87.30
2018-04-17T04:59:33.802Z,87.20
2018-04-17T05:02:01.306Z,87.40
2018-04-17T05:04:28.802Z,87.40
2018-04-17T05:06:56.318Z,87.50
2018-04-17T05:09:23.815Z,87.20
2018-04-17T05:11:51.449Z,87.20
2018-04-17T05:14:18.977Z,87.10
2018-04-17T05:16:46.481Z,87.20
2018-04-17T05:19:14.754Z,87.30
2018-04-17T05:21:43.021Z,87.20
2018-04-17T05:24:11.297Z,87.20
2018-04-17T05:26:38.874Z,87.20
2018-04-17T05:29:06.401Z,86.90
2018-04-17T05:31:33.917Z,86.50
2018-04-17T05:34:01.416Z,86.10
2018-04-17T05:36:28.935Z,85.90
2018-04-17T05:38:56.436Z,85.00
2018-04-17T05:41:23.935Z,84.30
2018-04-17T05:43:51.439Z,84.00
2018-04-17T05:46:18.954Z,83.80
2018-04-17T05:48:46.457Z,83.80
2018-04-17T05:51:13.978Z,83.90
2018-04-17T05:53:41.483Z,84.30
2018-04-17T05:56:08.983Z,84.00
2018-04-17T05:58:36.485Z,83.80
2018-04-17T06:01:03.989Z,83.60
2018-04-17T06:03:32.274Z,82.20
2018-04-17T06:05:59.789Z,82.10
2018-04-17T06:08:27.301Z,82.40
2018-04-17T06:10:54.802Z,82.70
2018-04-17T06:13:22.302Z,82.90
2018-04-17T06:15:49.826Z,82.30
2018-04-17T06:18:17.333Z,82.40
2018-04-17T06:20:44.845Z,82.90
2018-04-17T06:23:12.369Z,82.00
2018-04-17T06:25:39.885Z,81.90
2018-04-17T06:28:08.167Z,81.60
2018-04-17T06:30:36.434Z,81.10
2018-04-17T06:33:04.707Z,81.00
2018-04-17T06:35:32.237Z,81.00
2018-04-17T06:37:59.755Z,80.90
2018-04-17T06:40:27.257Z,80.60
2018-04-17T06:42:54.766Z,78.90
2018-04-17T06:45:22.282Z,78.50
2018-04-17T06:47:49.782Z,78.70
2018-04-17T06:50:17.362Z,79.00
2018-04-17T06:52:44.923Z,78.30
2018-04-17T06:55:12.394Z,76.80
2018-04-17T06:57:39.923Z,76.40
2018-04-17T07:00:07.437Z,76.60
2018-04-17T07:02:34.945Z,76.20
2018-04-17T07:05:02.454Z,76.30
2018-04-17T07:07:29.989Z,75.80
2018-04-17T07:09:57.505Z,75.70
2018-04-17T07:12:25.777Z,75.20
2018-04-17T07:14:53.293Z,75.20
2018-04-17T07:17:20.800Z,76.80
2018-04-17T07:19:49.322Z,74.90
2018-04-17T07:22:16.837Z,74.90
2018-04-17T07:24:45.122Z,72.30
2018-04-17T07:27:12.634Z,72.20
2018-04-17T07:29:40.160Z,74.10
2018-04-17T07:32:07.693Z,74.70
2018-04-17T07:34:36.016Z,74.20
2018-04-17T07:37:03.513Z,74.10
2018-04-17T07:39:31.020Z,71.00
2018-04-17T07:41:58.521Z,70.20
2018-04-17T07:44:26.065Z,68.10
2018-04-17T07:47:05.620Z,68.50
2018-04-17T07:49:33.126Z,68.50
2018-04-17T07:52:00.630Z,69.10
2018-04-17T07:54:28.219Z,68.80
2018-04-17T07:56:55.694Z,69.10
2018-04-17T07:59:23.201Z,68.20
2018-04-17T08:01:50.725Z,68.90
2018-04-17T08:04:18.235Z,68.20
2018-04-17T08:06:46.509Z,70.40
2018-04-17T08:09:14.016Z,69.50
2018-04-17T08:11:41.553Z,67.90
2018-04-17T08:14:09.066Z,65.10
2018-04-17T08:16:36.590Z,65.40
2018-04-17T08:19:04.106Z,66.70
2018-04-17T08:21:31.612Z,64.20
2018-04-17T08:23:59.171Z,64.60
2018-04-17T08:26:26.678Z,65.90
2018-04-17T08:28:54.957Z,64.40
2018-04-17T08:31:22.567Z,64.30
2018-04-17T08:33:50.070Z,65.00
2018-04-17T08:36:17.585Z,64.90
2018-04-17T08:38:45.152Z,65.60
2018-04-17T08:41:12.661Z,67.60
2018-04-17T08:43:40.945Z,66.20
2018-04-17T08:46:09.213Z,65.30
2018-04-17T08:48:37.485Z,66.00
2018-04-17T08:51:05.761Z,66.80
2018-04-17T08:53:34.038Z,66.40
2018-04-17T08:56:03.067Z,64.90
2018-04-17T08:58:31.374Z,65.50
2018-04-17T09:00:58.878Z,65.50
2018-04-17T09:03:27.150Z,65.60
2018-04-17T09:05:55.422Z,64.60
2018-04-17T09:08:22.941Z,64.50
2018-04-17T09:10:50.465Z,64.60
2018-04-17T09:13:17.969Z,64.20
2018-04-17T09:15:45.474Z,63.60
2018-04-17T09:18:13.737Z,63.60
2018-04-17T09:20:42.015Z,62.00
2018-04-17T09:23:10.329Z,61.90
2018-04-17T09:25:37.829Z,61.90
2018-04-17T09:28:05.340Z,60.70
2018-04-17T09:30:32.860Z,60.70
2018-04-17T09:33:00.442Z,60.40
2018-04-17T09:35:28.717Z,58.60
2018-04-17T09:37:56.975Z,55.90
2018-04-17T09:40:24.479Z,55.90
2018-04-17T09:42:52.014Z,55.00
2018-04-17T09:45:19.521Z,53.90
2018-04-17T09:47:47.029Z,54.40
2018-04-17T09:50:15.305Z,54.10
2018-04-17T09:52:43.582Z,52.30
2018-04-17T09:55:11.841Z,53.70
2018-04-17T09:57:39.355Z,53.70
2018-04-17T10:00:06.853Z,52.80
2018-04-17T10:02:34.365Z,52.20
2018-04-17T10:05:01.875Z,52.60
2018-04-17T10:07:29.373Z,50.80
2018-04-17T10:09:56.885Z,52.10
2018-04-17T10:12:25.165Z,53.10
2018-04-17T10:14:52.658Z,53.10
2018-04-17T10:17:20.160Z,52.30
2018-04-17T10:19:47.650Z,51.60
2018-04-17T10:22:15.921Z,51.40
2018-04-17T10:24:44.186Z,50.20
2018-04-17T10:27:11.678Z,50.20
2018-04-17T10:29:39.175Z,50.70
2018-04-17T10:32:06.670Z,50.50
2018-04-17T10:34:34.341Z,50.50
2018-04-17T10:37:05.208Z,51.10
2018-04-17T10:39:34.329Z,51.60
2018-04-17T10:42:02.797Z,50.80
2018-04-17T10:44:32.804Z,50.10
2018-04-17T10:47:01.084Z,50.00
2018-04-17T10:49:28.773Z,50.10
2018-04-17T10:51:56.369Z,49.40
2018-04-17T10:54:23.887Z,48.80
2018-04-17T10:56:52.236Z,50.00
2018-04-17T10:59:20.434Z,49.90
2018-04-17T11:01:47.977Z,48.30
2018-04-17T11:04:16.309Z,48.60
2018-04-17T11:06:46.276Z,48.60
2018-04-17T11:09:14.538Z,47.50
2018-04-17T11:11:43.663Z,46.00
2018-04-17T11:14:11.265Z,45.30
2018-04-17T11:16:39.784Z,46.10
2018-04-17T11:19:08.086Z,46.10
2018-04-17T11:21:36.310Z,45.70
2018-04-17T11:24:04.734Z,44.70
2018-04-17T11:26:32.325Z,44.60
2018-04-17T11:28:59.866Z,43.60
2018-04-17T11:31:27.333Z,43.80
2018-04-17T11:33:54.838Z,44.10
2018-04-17T11:36:22.350Z,41.80
2018-04-17T11:38:49.868Z,43.30
2018-04-17T11:41:17.359Z,44.10
2018-04-17T11:43:44.854Z,43.10
2018-04-17T11:46:13.122Z,42.00
2018-04-17T11:48:41.402Z,41.30
2018-04-17T11:51:09.666Z,40.40
2018-04-17T11:53:37.181Z,40.20
2018-04-17T11:56:04.706Z,41.20
2018-04-17T11:58:32.981Z,41.30
2018-04-17T12:01:01.250Z,41.00
2018-04-17T12:03:29.513Z,40.00
2018-04-17T12:05:57.010Z,39.90
2018-04-17T12:08:24.506Z,38.70
2018-04-17T12:10:52.010Z,39.10
2018-04-17T12:13:20.270Z,39.20
2018-04-17T12:15:47.758Z,39.10
2018-04-17T12:18:15.256Z,39.40
2018-04-17T12:20:42.753Z,39.70
2018-04-17T12:23:17.547Z,42.20
2018-04-17T12:25:45.052Z,42.20
2018-04-17T12:28:13.323Z,39.30
2018-04-17T12:30:41.594Z,39.40
2018-04-17T12:33:09.859Z,38.10
2018-04-17T12:35:37.373Z,38.00
2018-04-17T12:38:04.871Z,38.50
2018-04-17T12:40:32.387Z,38.20
2018-04-17T12:42:59.901Z,38.30
2018-04-17T12:45:28.162Z,38.60
2018-04-17T12:47:55.654Z,38.60
2018-04-17T12:50:23.155Z,39.10
2018-04-17T12:52:50.646Z,40.10
2018-04-17T12:55:18.930Z,41.50
2018-04-17T12:57:47.186Z,41.60
2018-04-17T13:00:14.677Z,41.40
2018-04-17T13:02:42.182Z,39.90
2018-04-17T13:05:09.691Z,40.00
2018-04-17T13:07:37.971Z,40.00
2018-04-17T13:10:06.234Z,41.40
2018-04-17T13:12:34.498Z,40.50
2018-04-17T13:15:02.759Z,40.40
2018-04-17T13:17:30.261Z,40.50
2018-04-17T13:19:57.785Z,41.90
2018-04-17T13:22:25.273Z,41.20
2018-04-17T13:24:53.541Z,40.80
2018-04-17T13:27:21.801Z,40.40
2018-04-17T13:29:49.710Z,40.30
2018-04-17T13:32:17.226Z,38.10
2018-04-17T13:34:44.728Z,38.70
2018-04-17T13:37:12.258Z,37.20
2018-04-17T13:39:40.518Z,36.40
2018-04-17T13:42:08.006Z,35.70
2018-04-17T13:44:35.518Z,36.20
2018-04-17T13:47:03.032Z,33.70
2018-04-17T13:49:30.529Z,34.70
2018-04-17T13:51:58.039Z,33.60
2018-04-17T13:54:26.297Z,36.90
2018-04-17T13:56:54.581Z,38.90
2018-04-17T13:59:22.837Z,37.40
2018-04-17T14:01:50.331Z,37.40
2018-04-17T14:04:17.832Z,37.20
2018-04-17T14:06:45.340Z,35.20
2018-04-17T14:09:13.595Z,34.00
2018-04-17T14:11:41.090Z,33.90
2018-04-17T14:14:08.582Z,34.00
2018-04-17T14:16:36.082Z,32.50
2018-04-17T14:19:04.349Z,30.30
2018-04-17T14:21:32.646Z,30.70
2018-04-17T14:24:00.158Z,30.70
2018-04-17T14:26:27.658Z,29.90
2018-04-17T14:28:55.941Z,29.70
2018-04-17T14:31:23.449Z,29.70
2018-04-17T14:33:50.953Z,28.30
2018-04-17T14:36:19.226Z,27.30
2018-04-17T14:38:47.511Z,27.80
2018-04-17T14:41:15.031Z,27.80
2018-04-17T14:43:42.598Z,28.60
2018-04-17T14:46:10.067Z,28.90
2018-04-17T14:48:38.366Z,27.30
2018-04-17T14:51:06.632Z,27.30
2018-04-17T14:53:34.893Z,29.70
2018-04-17T14:56:03.168Z,30.30
2018-04-17T14:58:32.178Z,32.00
2018-04-17T15:01:00.467Z,31.80
2018-04-17T15:03:28.034Z,31.80
2018-04-17T15:05:55.493Z,31.80
2018-04-17T15:08:22.990Z,31.70
2018-04-17T15:10:50.490Z,30.90
2018-04-17T15:13:18.770Z,31.60
2018-04-17T15:15:47.029Z,32.50
2018-04-17T15:18:15.309Z,32.70
2018-04-17T15:20:43.592Z,33.00
2018-04-17T15:23:12.113Z,33.30
2018-04-17T15:25:39.764Z,33.20
2018-04-17T15:28:07.302Z,34.80
2018-04-17T15:30:35.566Z,36.90
2018-04-17T15:33:03.836Z,37.70
2018-04-17T15:35:31.438Z,37.60
2018-04-17T15:37:58.929Z,38.10
2018-04-17T15:40:26.437Z,38.20
2018-04-17T15:42:53.946Z,36.90
2018-04-17T15:45:21.454Z,36.10
2018-04-17T15:47:48.958Z,33.80
2018-04-17T15:50:16.453Z,34.70
2018-04-17T15:52:44.733Z,34.10
2018-04-17T15:55:13.018Z,34.50
2018-04-17T15:57:41.273Z,33.30
2018-04-17T16:00:08.762Z,33.30
2018-04-17T16:02:36.264Z,33.40
2018-04-17T16:05:03.767Z,32.70
2018-04-17T16:07:32.029Z,33.00
2018-04-17T16:10:00.316Z,33.20
2018-04-17T16:12:28.569Z,33.70
2018-04-17T16:14:56.074Z,33.60
2018-04-17T16:17:23.586Z,33.40
2018-04-17T16:19:51.078Z,33.70
2018-04-17T16:22:18.584Z,34.40
2018-04-17T16:24:46.101Z,35.30
2018-04-17T16:27:13.601Z,34.00
2018-04-17T16:29:41.109Z,35.80
2018-04-17T16:32:09.378Z,37.00
2018-04-17T16:34:37.661Z,37.90
2018-04-17T16:37:05.925Z,38.10
2018-04-17T16:39:34.198Z,38.80
2018-04-17T16:42:02.478Z,39.10
2018-04-17T16:44:30.740Z,39.80
2018-04-17T16:46:58.247Z,39.70
2018-04-17T16:49:25.759Z,39.90
2018-04-17T16:51:53.254Z,40.00
2018-04-17T16:54:20.766Z,40.40
2018-04-17T16:56:48.275Z,40.60
2018-04-17T16:59:15.769Z,41.30
2018-04-17T17:01:43.296Z,41.40
2018-04-17T17:04:10.814Z,42.30
2018-04-17T17:06:38.318Z,42.40
2018-04-17T17:09:06.621Z,43.20
2018-04-17T17:11:34.133Z,42.90
2018-04-17T17:14:01.633Z,43.00
2018-04-17T17:16:29.170Z,43.20
2018-04-17T17:18:56.685Z,43.20
2018-04-17T17:21:24.969Z,43.50
2018-04-17T17:23:53.235Z,43.40
2018-04-17T17:26:20.753Z,43.50
2018-04-17T17:28:48.257Z,43.60
2018-04-17T17:31:16.585Z,44.00
2018-04-17T17:33:44.103Z,43.80
2018-04-17T17:36:11.626Z,44.00
2018-04-17T17:38:39.130Z,44.10
2018-04-17T17:41:06.646Z,44.20
2018-04-17T17:43:34.946Z,44.40
2018-04-17T17:46:03.242Z,44.50
2018-04-17T17:48:31.521Z,44.80
2018-04-17T17:50:59.025Z,44.80
2018-04-17T17:53:26.526Z,46.00
2018-04-17T17:55:54.793Z,46.80
2018-04-17T17:58:23.065Z,46.90
2018-04-17T18:00:51.358Z,47.10
2018-04-17T18:03:19.634Z,47.20
2018-04-17T18:05:47.909Z,46.90
2018-04-17T18:08:16.206Z,47.20
2018-04-17T18:10:43.702Z,47.20
2018-04-17T18:13:11.301Z,47.20
2018-04-17T18:15:39.573Z,47.50
2018-04-17T18:18:07.846Z,47.30
2018-04-17T18:20:36.124Z,47.60
2018-04-17T18:23:04.430Z,47.80
2018-04-17T18:25:31.999Z,47.80
2018-04-17T18:27:59.565Z,48.50
2018-04-17T18:30:27.074Z,48.60
2018-04-17T18:32:55.368Z,48.60
2018-04-17T18:35:23.646Z,49.30
2018-04-17T18:37:51.905Z,49.20
2018-04-17T18:40:19.414Z,49.10
2018-04-17T18:42:46.926Z,48.80
2018-04-17T18:45:15.204Z,49.70
2018-04-17T18:47:43.477Z,49.80
2018-04-17T18:50:11.798Z,49.70
2018-04-17T18:52:39.321Z,49.70
2018-04-17T18:55:07.589Z,49.70
2018-04-17T18:57:36.042Z,49.40
2018-04-17T19:00:03.564Z,49.40
2018-04-17T19:05:29.558Z,50.00
2018-04-17T19:07:57.081Z,50.00
2018-04-17T19:10:24.585Z,49.80
2018-04-17T19:12:52.855Z,49.80
2018-04-17T19:15:21.141Z,49.70
2018-04-17T19:17:49.421Z,50.10
2018-04-17T19:20:17.693Z,50.00
2018-04-17T19:22:45.977Z,50.50
2018-04-17T19:25:14.246Z,49.70
2018-04-17T19:27:42.534Z,50.10
2018-04-17T19:30:10.064Z,50.10
2018-04-17T19:32:37.576Z,50.30
2018-04-17T19:35:05.082Z,50.30
2018-04-17T19:37:32.598Z,50.60
2018-04-17T19:40:00.107Z,50.50
2018-04-17T19:42:28.378Z,51.20
2018-04-17T19:44:55.896Z,51.20
2018-04-17T19:47:23.399Z,51.30
2018-04-17T19:49:50.913Z,51.90
2018-04-17T19:52:18.446Z,52.00
2018-04-17T19:54:45.954Z,52.30
2018-04-17T19:57:13.470Z,52.50
2018-04-17T19:59:40.978Z,52.30
2018-04-17T20:02:08.487Z,52.20
2018-04-17T20:04:36.009Z,52.20
2018-04-17T20:07:03.510Z,52.60
2018-04-17T20:09:31.055Z,52.90
2018-04-17T20:11:58.573Z,53.00
2018-04-17T20:14:26.084Z,52.90
2018-04-17T20:16:53.584Z,52.90
2018-04-17T20:19:21.107Z,53.20
2018-04-17T20:21:48.609Z,53.20
2018-04-17T20:24:16.123Z,53.70
2018-04-17T20:26:43.625Z,54.00
2018-04-17T20:29:11.146Z,53.90
2018-04-17T20:31:38.727Z,53.70
2018-04-17T20:34:06.226Z,53.80
2018-04-17T20:36:36.914Z,54.20
2018-04-17T20:39:04.431Z,54.20
2018-04-17T20:41:32.722Z,54.40
2018-04-17T20:44:00.222Z,54.40
2018-04-17T20:46:27.729Z,54.30
2018-04-17T20:48:55.238Z,54.50
2018-04-17T20:51:22.778Z,54.80
2018-04-17T20:53:50.302Z,55.30
2018-04-17T20:56:18.574Z,55.60
2018-04-17T20:58:46.861Z,55.80
2018-04-17T21:01:14.370Z,55.80
2018-04-17T21:03:41.890Z,55.60
2018-04-17T21:06:09.418Z,55.20
2018-04-17T21:08:37.693Z,55.20
2018-04-17T21:11:05.962Z,55.20
2018-04-17T21:13:33.474Z,55.10
2018-04-17T21:16:00.982Z,55.00
2018-04-17T21:18:28.501Z,55.20
2018-04-17T21:20:56.013Z,55.20
2018-04-17T21:23:24.286Z,55.40
2018-04-17T21:25:52.562Z,55.40
2018-04-17T21:28:20.837Z,55.50
2018-04-17T21:30:49.099Z,55.70
2018-04-17T21:33:16.603Z,55.60
2018-04-17T21:35:44.142Z,55.90
2018-04-17T21:38:12.415Z,55.90
2018-04-17T21:40:40.702Z,55.90
2018-04-17T21:43:08.214Z,55.90
2018-04-17T21:45:35.716Z,56.00
2018-04-17T21:48:03.225Z,56.30
2018-04-17T21:50:30.730Z,56.50
2018-04-17T21:52:59.006Z,56.60
2018-04-17T21:55:27.279Z,56.70
2018-04-17T21:57:55.544Z,57.10
2018-04-17T22:00:23.829Z,57.10
2018-04-17T22:02:52.102Z,57.00
2018-04-17T22:05:20.381Z,57.10
2018-04-17T22:07:48.656Z,57.20
2018-04-17T22:10:16.942Z,57.10
2018-04-17T22:12:44.458Z,57.10
2018-04-17T22:15:11.970Z,57.10
2018-04-17T22:17:39.489Z,57.10
2018-04-17T22:20:07.102Z,57.10
2018-04-17T22:22:34.602Z,57.10
2018-04-17T22:25:02.126Z,57.30
2018-04-17T22:27:29.640Z,57.40
2018-04-17T22:29:57.930Z,57.50
2018-04-17T22:32:25.437Z,57.50
2018-04-17T22:34:52.951Z,57.30
2018-04-17T22:37:20.457Z,57.30
2018-04-17T22:39:47.964Z,57.40
2018-04-17T22:42:16.243Z,57.40
2018-04-17T22:44:43.769Z,57.30
2018-04-17T22:47:11.986Z,57.30
2018-04-17T22:49:39.526Z,57.10
2018-04-17T22:52:07.811Z,57.40
2018-04-17T22:54:35.327Z,57.40
2018-04-17T22:57:02.831Z,57.50
2018-04-17T22:59:30.348Z,57.90
2018-04-17T23:01:57.870Z,58.60
2018-04-17T23:04:25.373Z,59.00
2018-04-17T23:06:53.659Z,59.60
2018-04-17T23:09:21.930Z,59.80
2018-04-17T23:11:49.453Z,59.70
2018-04-17T23:14:16.974Z,59.60
2018-04-17T23:16:44.485Z,59.50
2018-04-17T23:19:11.990Z,59.50
2018-04-17T23:21:40.366Z,59.50
2018-04-17T23:24:08.629Z,59.40
2018-04-17T23:26:36.138Z,59.40
2018-04-17T23:29:03.650Z,59.40
2018-04-17T23:31:31.930Z,59.10
2018-04-17T23:34:00.218Z,59.30
2018-04-17T23:36:28.485Z,59.50
2018-04-17T23:38:56.750Z,59.60
2018-04-17T23:41:24.278Z,59.60
2018-04-17T23:43:51.785Z,59.70
2018-04-17T23:46:20.062Z,60.30
2018-04-17T23:48:48.334Z,60.90
2018-04-17T23:51:16.602Z,60.80
2018-04-17T23:53:44.881Z,61.60
2018-04-17T23:56:13.167Z,61.60
2018-04-17T23:58:41.437Z,61.70
